sensor_id;sensor_type;location;lat;lon;timestamp;pressure;altitude;pressure_sealevel;temperature
32039;BMP280;18549;42.286;22.688;2022-12-26T00:02:25;96651.41;;;7.42
32039;BMP280;18549;42.286;22.688;2022-12-26T00:04:52;96662.91;;;7.41
32039;BMP280;18549;42.286;22.688;2022-12-26T00:07:20;96655.59;;;7.40
32039;BMP280;18549;42.286;22.688;2022-12-26T00:09:47;96653.16;;;7.38
32039;BMP280;18549;42.286;22.688;2022-12-26T00:12:13;96650.69;;;7.38
32039;BMP280;18549;42.286;22.688;2022-12-26T00:14:40;96651.59;;;7.36
32039;BMP280;18549;42.286;22.688;2022-12-26T00:17:07;96663.66;;;7.21
32039;BMP280;18549;42.286;22.688;2022-12-26T00:19:34;96665.47;;;7.16
32039;BMP280;18549;42.286;22.688;2022-12-26T00:22:01;96660.72;;;7.10
32039;BMP280;18549;42.286;22.688;2022-12-26T00:24:29;96667.59;;;7.02
32039;BMP280;18549;42.286;22.688;2022-12-26T00:26:55;96668.22;;;7.07
32039;BMP280;18549;42.286;22.688;2022-12-26T00:29:22;96674.84;;;7.06
32039;BMP280;18549;42.286;22.688;2022-12-26T00:31:49;96682.12;;;7.09
32039;BMP280;18549;42.286;22.688;2022-12-26T00:34:16;96680.44;;;7.10
32039;BMP280;18549;42.286;22.688;2022-12-26T00:36:42;96681.28;;;7.10
32039;BMP280;18549;42.286;22.688;2022-12-26T00:39:09;96690.22;;;7.13
32039;BMP280;18549;42.286;22.688;2022-12-26T00:41:38;96682.84;;;7.13
32039;BMP280;18549;42.286;22.688;2022-12-26T00:44:04;96682.19;;;7.08
32039;BMP280;18549;42.286;22.688;2022-12-26T00:46:31;96678.09;;;7.07
32039;BMP280;18549;42.286;22.688;2022-12-26T00:48:58;96680.72;;;7.02
32039;BMP280;18549;42.286;22.688;2022-12-26T00:51:25;96680.78;;;7.01
32039;BMP280;18549;42.286;22.688;2022-12-26T00:53:52;96687.31;;;7.02
32039;BMP280;18549;42.286;22.688;2022-12-26T00:56:19;96684.09;;;7.00
32039;BMP280;18549;42.286;22.688;2022-12-26T00:58:47;96693.84;;;7.03
32039;BMP280;18549;42.286;22.688;2022-12-26T01:01:16;96689.12;;;6.97
32039;BMP280;18549;42.286;22.688;2022-12-26T01:03:44;96685.03;;;6.96
32039;BMP280;18549;42.286;22.688;2022-12-26T01:06:11;96689.12;;;6.97
32039;BMP280;18549;42.286;22.688;2022-12-26T01:08:39;96686.66;;;6.97
32039;BMP280;18549;42.286;22.688;2022-12-26T01:11:08;96688.25;;;6.98
32039;BMP280;18549;42.286;22.688;2022-12-26T01:13:35;96682.50;;;6.99
32039;BMP280;18549;42.286;22.688;2022-12-26T01:16:04;96682.50;;;6.99
32039;BMP280;18549;42.286;22.688;2022-12-26T01:18:32;96671.00;;;6.98
32039;BMP280;18549;42.286;22.688;2022-12-26T01:21:01;96678.41;;;6.98
32039;BMP280;18549;42.286;22.688;2022-12-26T01:23:28;96671.00;;;6.98
32039;BMP280;18549;42.286;22.688;2022-12-26T01:25:55;96679.16;;;7.00
32039;BMP280;18549;42.286;22.688;2022-12-26T01:28:22;96681.62;;;7.00
32039;BMP280;18549;42.286;22.688;2022-12-26T01:30:49;96687.31;;;7.02
32039;BMP280;18549;42.286;22.688;2022-12-26T01:33:17;96683.53;;;6.92
32039;BMP280;18549;42.286;22.688;2022-12-26T01:35:51;96683.53;;;6.92
32039;BMP280;18549;42.286;22.688;2022-12-26T01:38:18;96690.97;;;6.90
32039;BMP280;18549;42.286;22.688;2022-12-26T01:40:45;96692.63;;;6.90
32039;BMP280;18549;42.286;22.688;2022-12-26T01:43:14;96685.25;;;6.90
32039;BMP280;18549;42.286;22.688;2022-12-26T01:45:42;96687.81;;;6.87
32039;BMP280;18549;42.286;22.688;2022-12-26T01:48:19;96685.34;;;6.87
32039;BMP280;18549;42.286;22.688;2022-12-26T01:50:51;96691.13;;;6.86
32039;BMP280;18549;42.286;22.688;2022-12-26T01:53:26;96684.63;;;6.84
32039;BMP280;18549;42.286;22.688;2022-12-26T01:55:57;96685.50;;;6.83
32039;BMP280;18549;42.286;22.688;2022-12-26T01:58:29;96689.66;;;6.81
32039;BMP280;18549;42.286;22.688;2022-12-26T02:00:57;96701.94;;;6.82
32039;BMP280;18549;42.286;22.688;2022-12-26T02:03:26;96703.66;;;6.80
32039;BMP280;18549;42.286;22.688;2022-12-26T02:06:11;96707.81;;;6.78
32039;BMP280;18549;42.286;22.688;2022-12-26T02:08:39;96705.38;;;6.78
32039;BMP280;18549;42.286;22.688;2022-12-26T02:11:11;96703.88;;;6.73
32039;BMP280;18549;42.286;22.688;2022-12-26T02:13:40;96705.53;;;6.72
32039;BMP280;18549;42.286;22.688;2022-12-26T02:16:09;96698.19;;;6.71
32039;BMP280;18549;42.286;22.688;2022-12-26T02:18:39;96688.34;;;6.71
32039;BMP280;18549;42.286;22.688;2022-12-26T02:21:28;96685.97;;;6.68
32039;BMP280;18549;42.286;22.688;2022-12-26T02:24:25;96690.22;;;6.64
32039;BMP280;18549;42.286;22.688;2022-12-26T02:27:20;96686.88;;;6.65
32039;BMP280;18549;42.286;22.688;2022-12-26T02:30:03;96684.53;;;6.62
32039;BMP280;18549;42.286;22.688;2022-12-26T02:33:00;96679.59;;;6.62
32039;BMP280;18549;42.286;22.688;2022-12-26T02:35:41;96683.75;;;6.60
32039;BMP280;18549;42.286;22.688;2022-12-26T02:38:21;96683.75;;;6.60
32039;BMP280;18549;42.286;22.688;2022-12-26T02:40:55;96684.59;;;6.59
32039;BMP280;18549;42.286;22.688;2022-12-26T02:43:30;96686.25;;;6.59
32039;BMP280;18549;42.286;22.688;2022-12-26T02:46:03;96686.31;;;6.57
32039;BMP280;18549;42.286;22.688;2022-12-26T02:48:56;96683.94;;;6.55
32039;BMP280;18549;42.286;22.688;2022-12-26T02:51:34;96684.03;;;6.52
32039;BMP280;18549;42.286;22.688;2022-12-26T02:54:26;96693.94;;;6.50
32039;BMP280;18549;42.286;22.688;2022-12-26T02:57:17;96689.00;;;6.50
32039;BMP280;18549;42.286;22.688;2022-12-26T03:00:05;96695.59;;;6.50
32039;BMP280;18549;42.286;22.688;2022-12-26T03:02:52;96703.09;;;6.47
32039;BMP280;18549;42.286;22.688;2022-12-26T03:05:41;96702.19;;;6.49
32039;BMP280;18549;42.286;22.688;2022-12-26T03:08:36;96701.47;;;6.46
32039;BMP280;18549;42.286;22.688;2022-12-26T03:11:22;96699.97;;;6.42
32039;BMP280;18549;42.286;22.688;2022-12-26T03:14:14;96697.66;;;6.36
32039;BMP280;18549;42.286;22.688;2022-12-26T03:16:42;96696.09;;;6.33
32039;BMP280;18549;42.286;22.688;2022-12-26T03:19:28;96697.03;;;6.29
32039;BMP280;18549;42.286;22.688;2022-12-26T03:22:01;96694.66;;;6.28
32039;BMP280;18549;42.286;22.688;2022-12-26T03:24:52;96688.97;;;6.26
32039;BMP280;18549;42.286;22.688;2022-12-26T03:27:33;96688.97;;;6.26
32039;BMP280;18549;42.286;22.688;2022-12-26T03:30:00;96690.53;;;6.28
32039;BMP280;18549;42.286;22.688;2022-12-26T03:32:44;96695.63;;;6.23
32039;BMP280;18549;42.286;22.688;2022-12-26T03:35:12;96693.25;;;6.20
32039;BMP280;18549;42.286;22.688;2022-12-26T03:37:47;96689.12;;;6.20
32039;BMP280;18549;42.286;22.688;2022-12-26T03:40:34;96695.69;;;6.21
32039;BMP280;18549;42.286;22.688;2022-12-26T03:43:32;96685.87;;;6.20
32039;BMP280;18549;42.286;22.688;2022-12-26T03:46:24;96691.66;;;6.19
32039;BMP280;18549;42.286;22.688;2022-12-26T03:49:16;96688.28;;;6.21
32039;BMP280;18549;42.286;22.688;2022-12-26T03:52:07;96688.28;;;6.21
32039;BMP280;18549;42.286;22.688;2022-12-26T03:54:59;96686.72;;;6.19
32039;BMP280;18549;42.286;22.688;2022-12-26T03:57:49;96696.50;;;6.20
32039;BMP280;18549;42.286;22.688;2022-12-26T04:00:33;96689.91;;;6.22
32039;BMP280;18549;42.286;22.688;2022-12-26T04:03:20;96693.22;;;6.21
32039;BMP280;18549;42.286;22.688;2022-12-26T04:06:25;96701.53;;;6.17
32039;BMP280;18549;42.286;22.688;2022-12-26T04:09:14;96699.88;;;6.18
32039;BMP280;18549;42.286;22.688;2022-12-26T04:12:02;96708.16;;;6.15
32039;BMP280;18549;42.286;22.688;2022-12-26T04:14:49;96708.16;;;6.15
32039;BMP280;18549;42.286;22.688;2022-12-26T04:17:49;96704.12;;;6.13
32039;BMP280;18549;42.286;22.688;2022-12-26T04:20:46;96711.47;;;6.14
32039;BMP280;18549;42.286;22.688;2022-12-26T04:23:17;96712.38;;;6.12
32039;BMP280;18549;42.286;22.688;2022-12-26T04:26:10;96715.63;;;6.12
32039;BMP280;18549;42.286;22.688;2022-12-26T04:28:58;96710.00;;;6.09
32039;BMP280;18549;42.286;22.688;2022-12-26T04:31:45;96719.91;;;6.07
32039;BMP280;18549;42.286;22.688;2022-12-26T04:34:35;96710.31;;;5.98
32039;BMP280;18549;42.286;22.688;2022-12-26T04:37:25;96713.69;;;5.94
32039;BMP280;18549;42.286;22.688;2022-12-26T04:40:14;96711.34;;;5.92
32039;BMP280;18549;42.286;22.688;2022-12-26T04:43:01;96714.63;;;5.91
32039;BMP280;18549;42.286;22.688;2022-12-26T04:45:48;96712.16;;;5.91
32039;BMP280;18549;42.286;22.688;2022-12-26T04:48:15;96709.69;;;5.92
32039;BMP280;18549;42.286;22.688;2022-12-26T04:51:00;96712.97;;;5.91
32039;BMP280;18549;42.286;22.688;2022-12-26T04:53:26;96702.31;;;5.91
32039;BMP280;18549;42.286;22.688;2022-12-26T04:55:53;96704.16;;;5.84
32039;BMP280;18549;42.286;22.688;2022-12-26T04:58:20;96717.53;;;5.76
32039;BMP280;18549;42.286;22.688;2022-12-26T05:00:51;96717.75;;;5.67
32039;BMP280;18549;42.286;22.688;2022-12-26T05:03:38;96730.28;;;5.58
32039;BMP280;18549;42.286;22.688;2022-12-26T05:06:22;96727.94;;;5.54
32039;BMP280;18549;42.286;22.688;2022-12-26T05:09:08;96728.06;;;5.49
32039;BMP280;18549;42.286;22.688;2022-12-26T05:11:54;96733.22;;;5.40
32039;BMP280;18549;42.286;22.688;2022-12-26T05:14:21;96741.22;;;5.48
32039;BMP280;18549;42.286;22.688;2022-12-26T05:16:49;96738.00;;;5.46
32039;BMP280;18549;42.286;22.688;2022-12-26T05:19:33;96744.00;;;5.36
32039;BMP280;18549;42.286;22.688;2022-12-26T05:22:18;96748.09;;;5.36
32039;BMP280;18549;42.286;22.688;2022-12-26T05:25:04;96743.94;;;5.38
32039;BMP280;18549;42.286;22.688;2022-12-26T05:27:57;96740.72;;;5.36
32039;BMP280;18549;42.286;22.688;2022-12-26T05:30:42;96748.84;;;5.39
32039;BMP280;18549;42.286;22.688;2022-12-26T05:33:10;96743.84;;;5.41
32039;BMP280;18549;42.286;22.688;2022-12-26T05:35:54;96747.91;;;5.43
32039;BMP280;18549;42.286;22.688;2022-12-26T05:38:21;96748.78;;;5.41
32039;BMP280;18549;42.286;22.688;2022-12-26T05:40:48;96748.06;;;5.37
32039;BMP280;18549;42.286;22.688;2022-12-26T05:43:15;96755.41;;;5.39
32039;BMP280;18549;42.286;22.688;2022-12-26T05:45:43;96759.59;;;5.35
32039;BMP280;18549;42.286;22.688;2022-12-26T05:48:11;96753.06;;;5.34
32039;BMP280;18549;42.286;22.688;2022-12-26T05:50:38;96757.13;;;5.35
32039;BMP280;18549;42.286;22.688;2022-12-26T05:53:04;96754.75;;;5.32
32039;BMP280;18549;42.286;22.688;2022-12-26T05:55:31;96758.03;;;5.31
32039;BMP280;18549;42.286;22.688;2022-12-26T05:57:58;96758.75;;;5.36
32039;BMP280;18549;42.286;22.688;2022-12-26T06:00:26;96751.38;;;5.36
32039;BMP280;18549;42.286;22.688;2022-12-26T06:02:53;96753.06;;;5.34
32039;BMP280;18549;42.286;22.688;2022-12-26T06:05:21;96757.09;;;5.37
32039;BMP280;18549;42.286;22.688;2022-12-26T06:07:48;96753.09;;;5.33
32039;BMP280;18549;42.286;22.688;2022-12-26T06:10:15;96759.56;;;5.37
32039;BMP280;18549;42.286;22.688;2022-12-26T06:12:42;96760.50;;;5.31
32039;BMP280;18549;42.286;22.688;2022-12-26T06:15:09;96776.13;;;5.29
32039;BMP280;18549;42.286;22.688;2022-12-26T06:17:37;96771.16;;;5.32
32039;BMP280;18549;42.286;22.688;2022-12-26T06:20:05;96780.38;;;5.24
32039;BMP280;18549;42.286;22.688;2022-12-26T06:22:33;96784.47;;;5.24
32039;BMP280;18549;42.286;22.688;2022-12-26T06:25:00;96782.75;;;5.27
32039;BMP280;18549;42.286;22.688;2022-12-26T06:27:27;96782.03;;;5.22
32039;BMP280;18549;42.286;22.688;2022-12-26T06:29:54;96780.47;;;5.20
32039;BMP280;18549;42.286;22.688;2022-12-26T06:32:21;96794.53;;;5.15
32039;BMP280;18549;42.286;22.688;2022-12-26T06:34:48;96804.38;;;5.13
32039;BMP280;18549;42.286;22.688;2022-12-26T06:37:15;96797.09;;;5.10
32039;BMP280;18549;42.286;22.688;2022-12-26T06:39:43;96798.66;;;5.14
32039;BMP280;18549;42.286;22.688;2022-12-26T06:42:10;96806.81;;;5.15
32039;BMP280;18549;42.286;22.688;2022-12-26T06:44:36;96810.88;;;5.16
32039;BMP280;18549;42.286;22.688;2022-12-26T06:47:03;96806.81;;;5.15
32039;BMP280;18549;42.286;22.688;2022-12-26T06:49:30;96798.56;;;5.17
32039;BMP280;18549;42.286;22.688;2022-12-26T06:51:57;96805.06;;;5.20
32039;BMP280;18549;42.286;22.688;2022-12-26T06:54:23;96805.03;;;5.21
32039;BMP280;18549;42.286;22.688;2022-12-26T06:56:51;96806.59;;;5.25
32039;BMP280;18549;42.286;22.688;2022-12-26T06:59:18;96805.63;;;5.30
32039;BMP280;18549;42.286;22.688;2022-12-26T07:01:45;96797.38;;;5.31
32039;BMP280;18549;42.286;22.688;2022-12-26T07:04:12;96795.88;;;5.27
32039;BMP280;18549;42.286;22.688;2022-12-26T07:06:39;96792.81;;;5.18
32039;BMP280;18549;42.286;22.688;2022-12-26T07:09:07;96796.31;;;5.10
32039;BMP280;18549;42.286;22.688;2022-12-26T07:11:37;96792.59;;;4.94
32039;BMP280;18549;42.286;22.688;2022-12-26T07:14:06;96804.31;;;4.83
32039;BMP280;18549;42.286;22.688;2022-12-26T07:16:33;96803.53;;;4.81
32039;BMP280;18549;42.286;22.688;2022-12-26T07:19:00;96803.47;;;4.84
32039;BMP280;18549;42.286;22.688;2022-12-26T07:21:27;96810.75;;;4.89
32039;BMP280;18549;42.286;22.688;2022-12-26T07:23:54;96810.56;;;4.96
32039;BMP280;18549;42.286;22.688;2022-12-26T07:26:22;96807.94;;;5.02
32039;BMP280;18549;42.286;22.688;2022-12-26T07:28:52;96801.22;;;5.10
32039;BMP280;18549;42.286;22.688;2022-12-26T07:31:20;96807.59;;;5.17
32039;BMP280;18549;42.286;22.688;2022-12-26T07:33:47;96809.16;;;5.21
32039;BMP280;18549;42.286;22.688;2022-12-26T07:36:14;96808.19;;;5.24
32039;BMP280;18549;42.286;22.688;2022-12-26T07:38:41;96808.97;;;5.26
32039;BMP280;18549;42.286;22.688;2022-12-26T07:41:08;96802.41;;;5.27
32039;BMP280;18549;42.286;22.688;2022-12-26T07:43:49;96808.84;;;5.32
32039;BMP280;18549;42.286;22.688;2022-12-26T07:46:15;96803.84;;;5.35
32039;BMP280;18549;42.286;22.688;2022-12-26T07:48:44;96820.13;;;5.39
32039;BMP280;18549;42.286;22.688;2022-12-26T07:51:11;96816.78;;;5.43
32039;BMP280;18549;42.286;22.688;2022-12-26T07:53:38;96826.44;;;5.49
32039;BMP280;18549;42.286;22.688;2022-12-26T07:56:05;96815.72;;;5.52
32039;BMP280;18549;42.286;22.688;2022-12-26T07:58:32;96827.97;;;5.53
32039;BMP280;18549;42.286;22.688;2022-12-26T08:01:00;96831.13;;;5.58
32039;BMP280;18549;42.286;22.688;2022-12-26T08:03:27;96824.56;;;5.58
32039;BMP280;18549;42.286;22.688;2022-12-26T08:05:57;96815.59;;;5.56
32039;BMP280;18549;42.286;22.688;2022-12-26T08:08:26;96818.84;;;5.58
32039;BMP280;18549;42.286;22.688;2022-12-26T08:10:57;96813.00;;;5.62
32039;BMP280;18549;42.286;22.688;2022-12-26T08:13:24;96815.34;;;5.66
32039;BMP280;18549;42.286;22.688;2022-12-26T08:15:51;96812.75;;;5.71
32039;BMP280;18549;42.286;22.688;2022-12-26T08:18:18;96821.84;;;5.69
32039;BMP280;18549;42.286;22.688;2022-12-26T08:20:45;96817.66;;;6.31
32039;BMP280;18549;42.286;22.688;2022-12-26T08:23:13;96824.53;;;7.77
32039;BMP280;18549;42.286;22.688;2022-12-26T08:25:40;96813.03;;;8.23
32039;BMP280;18549;42.286;22.688;2022-12-26T08:28:07;96815.75;;;7.92
32039;BMP280;18549;42.286;22.688;2022-12-26T08:30:34;96813.66;;;7.58
32039;BMP280;18549;42.286;22.688;2022-12-26T08:33:00;96818.69;;;7.31
32039;BMP280;18549;42.286;22.688;2022-12-26T08:35:27;96814.50;;;7.07
32039;BMP280;18549;42.286;22.688;2022-12-26T08:37:54;96815.97;;;6.87
32039;BMP280;18549;42.286;22.688;2022-12-26T08:40:22;96812.38;;;6.71
32039;BMP280;18549;42.286;22.688;2022-12-26T08:42:49;96825.00;;;6.59
32039;BMP280;18549;42.286;22.688;2022-12-26T08:45:16;96822.72;;;6.55
32039;BMP280;18549;42.286;22.688;2022-12-26T08:47:43;96817.94;;;6.49
32039;BMP280;18549;42.286;22.688;2022-12-26T08:50:10;96814.75;;;6.46
32039;BMP280;18549;42.286;22.688;2022-12-26T08:52:37;96811.44;;;6.48
32039;BMP280;18549;42.286;22.688;2022-12-26T08:55:04;96807.37;;;6.46
32039;BMP280;18549;42.286;22.688;2022-12-26T08:57:33;96807.56;;;6.40
32039;BMP280;18549;42.286;22.688;2022-12-26T08:59:59;96803.66;;;6.33
32039;BMP280;18549;42.286;22.688;2022-12-26T09:02:26;96803.66;;;6.33
32039;BMP280;18549;42.286;22.688;2022-12-26T09:04:53;96793.69;;;6.37
32039;BMP280;18549;42.286;22.688;2022-12-26T09:07:20;96796.00;;;6.42
32039;BMP280;18549;42.286;22.688;2022-12-26T09:09:47;96788.56;;;6.43
32039;BMP280;18549;42.286;22.688;2022-12-26T09:12:14;96783.03;;;6.37
32039;BMP280;18549;42.286;22.688;2022-12-26T09:14:42;96783.63;;;6.43
32039;BMP280;18549;42.286;22.688;2022-12-26T09:17:09;96786.03;;;6.46
32039;BMP280;18549;42.286;22.688;2022-12-26T09:19:36;96778.69;;;6.45
32039;BMP280;18549;42.286;22.688;2022-12-26T09:22:03;96785.03;;;6.52
32039;BMP280;18549;42.286;22.688;2022-12-26T09:24:47;96783.19;;;6.58
32039;BMP280;18549;42.286;22.688;2022-12-26T09:27:14;96777.28;;;6.63
32039;BMP280;18549;42.286;22.688;2022-12-26T09:29:42;96772.09;;;6.71
32039;BMP280;18549;42.286;22.688;2022-12-26T09:32:08;96769.84;;;6.65
32039;BMP280;18549;42.286;22.688;2022-12-26T09:34:35;96759.78;;;6.71
32039;BMP280;18549;42.286;22.688;2022-12-26T09:37:02;96761.97;;;6.80
32039;BMP280;18549;42.286;22.688;2022-12-26T09:39:29;96762.75;;;6.82
32039;BMP280;18549;42.286;22.688;2022-12-26T09:42:07;96756.06;;;6.85
32039;BMP280;18549;42.286;22.688;2022-12-26T09:44:47;96753.41;;;6.91
32039;BMP280;18549;42.286;22.688;2022-12-26T09:47:26;96744.03;;;7.00
32039;BMP280;18549;42.286;22.688;2022-12-26T09:49:57;96734.81;;;7.07
32039;BMP280;18549;42.286;22.688;2022-12-26T09:52:32;96730.87;;;7.25
32039;BMP280;18549;42.286;22.688;2022-12-26T09:55:03;96725.44;;;7.40
32039;BMP280;18549;42.286;22.688;2022-12-26T09:57:35;96723.75;;;7.42
32039;BMP280;18549;42.286;22.688;2022-12-26T10:00:10;96723.13;;;7.36
32039;BMP280;18549;42.286;22.688;2022-12-26T10:02:41;96729.50;;;7.41
32039;BMP280;18549;42.286;22.688;2022-12-26T10:05:12;96724.25;;;7.50
32039;BMP280;18549;42.286;22.688;2022-12-26T10:07:43;96719.19;;;7.55
32039;BMP280;18549;42.286;22.688;2022-12-26T10:10:13;96716.34;;;7.65
32039;BMP280;18549;42.286;22.688;2022-12-26T10:12:52;96710.81;;;7.81
32039;BMP280;18549;42.286;22.688;2022-12-26T10:15:39;96701.37;;;7.92
32039;BMP280;18549;42.286;22.688;2022-12-26T10:18:17;96692.66;;;8.05
32039;BMP280;18549;42.286;22.688;2022-12-26T10:21:02;96696.81;;;8.47
32039;BMP280;18549;42.286;22.688;2022-12-26T10:23:33;96688.59;;;8.87
32039;BMP280;18549;42.286;22.688;2022-12-26T10:26:11;96683.47;;;8.91
32039;BMP280;18549;42.286;22.688;2022-12-26T10:28:42;96684.38;;;8.89
32039;BMP280;18549;42.286;22.688;2022-12-26T10:31:16;96678.56;;;8.90
32039;BMP280;18549;42.286;22.688;2022-12-26T10:33:47;96676.09;;;8.90
32039;BMP280;18549;42.286;22.688;2022-12-26T10:36:23;96680.63;;;9.00
32039;BMP280;18549;42.286;22.688;2022-12-26T10:38:52;96673.69;;;9.08
32039;BMP280;18549;42.286;22.688;2022-12-26T10:41:24;96669.84;;;9.21
32039;BMP280;18549;42.286;22.688;2022-12-26T10:43:52;96669.47;;;9.30
32039;BMP280;18549;42.286;22.688;2022-12-26T10:46:34;96666.41;;;9.43
32039;BMP280;18549;42.286;22.688;2022-12-26T10:49:04;96670.69;;;9.58
32039;BMP280;18549;42.286;22.688;2022-12-26T10:51:33;96663.03;;;9.64
32039;BMP280;18549;42.286;22.688;2022-12-26T10:54:02;96663.06;;;9.81
32039;BMP280;18549;42.286;22.688;2022-12-26T10:56:30;96653.31;;;9.78
32039;BMP280;18549;42.286;22.688;2022-12-26T10:58:59;96646.22;;;9.88
32039;BMP280;18549;42.286;22.688;2022-12-26T11:01:36;96645.88;;;10.14
32039;BMP280;18549;42.286;22.688;2022-12-26T11:04:05;96647.44;;;10.33
32039;BMP280;18549;42.286;22.688;2022-12-26T11:06:36;96635.66;;;10.55
32039;BMP280;18549;42.286;22.688;2022-12-26T11:09:03;96633.97;;;10.72
32039;BMP280;18549;42.286;22.688;2022-12-26T11:11:32;96623.09;;;10.91
32039;BMP280;18549;42.286;22.688;2022-12-26T11:14:29;96617.47;;;11.05
32039;BMP280;18549;42.286;22.688;2022-12-26T11:16:59;96610.84;;;11.20
32039;BMP280;18549;42.286;22.688;2022-12-26T11:19:28;96604.63;;;11.29
32039;BMP280;18549;42.286;22.688;2022-12-26T11:22:13;96597.50;;;11.38
32039;BMP280;18549;42.286;22.688;2022-12-26T11:24:45;96609.44;;;11.49
32039;BMP280;18549;42.286;22.688;2022-12-26T11:27:27;96605.09;;;11.52
32039;BMP280;18549;42.286;22.688;2022-12-26T11:30:10;96592.72;;;11.35
32039;BMP280;18549;42.286;22.688;2022-12-26T11:32:44;96586.28;;;11.31
32039;BMP280;18549;42.286;22.688;2022-12-26T11:35:16;96590.75;;;11.25
32039;BMP280;18549;42.286;22.688;2022-12-26T11:37:44;96578.25;;;11.11
32039;BMP280;18549;42.286;22.688;2022-12-26T11:40:16;96587.03;;;11.01
32039;BMP280;18549;42.286;22.688;2022-12-26T11:42:48;96578.59;;;10.88
32039;BMP280;18549;42.286;22.688;2022-12-26T11:45:20;96563.59;;;10.75
32039;BMP280;18549;42.286;22.688;2022-12-26T11:47:49;96582.28;;;10.65
32039;BMP280;18549;42.286;22.688;2022-12-26T11:50:17;96581.34;;;10.51
32039;BMP280;18549;42.286;22.688;2022-12-26T11:52:50;96582.50;;;10.44
32039;BMP280;18549;42.286;22.688;2022-12-26T11:55:28;96581.94;;;10.39
32039;BMP280;18549;42.286;22.688;2022-12-26T11:57:56;96578.03;;;10.33
32039;BMP280;18549;42.286;22.688;2022-12-26T12:00:25;96583.09;;;10.32
32039;BMP280;18549;42.286;22.688;2022-12-26T12:02:53;96579.31;;;10.25
32039;BMP280;18549;42.286;22.688;2022-12-26T12:05:31;96573.63;;;10.23
32039;BMP280;18549;42.286;22.688;2022-12-26T12:10:59;96574.56;;;10.21
32039;BMP280;18549;42.286;22.688;2022-12-26T12:13:41;96568.88;;;10.19
32039;BMP280;18549;42.286;22.688;2022-12-26T12:16:21;96561.06;;;10.09
32039;BMP280;18549;42.286;22.688;2022-12-26T12:18:56;96551.00;;;10.12
32039;BMP280;18549;42.286;22.688;2022-12-26T12:21:33;96551.00;;;10.12
32039;BMP280;18549;42.286;22.688;2022-12-26T12:24:28;96547.63;;;10.13
32039;BMP280;18549;42.286;22.688;2022-12-26T12:27:08;96544.38;;;10.13
32039;BMP280;18549;42.286;22.688;2022-12-26T12:29:50;96539.63;;;10.08
32039;BMP280;18549;42.286;22.688;2022-12-26T12:32:26;96539.34;;;10.14
32039;BMP280;18549;42.286;22.688;2022-12-26T12:38:10;96540.81;;;10.18
32039;BMP280;18549;42.286;22.688;2022-12-26T12:40:45;96543.31;;;10.18
32039;BMP280;18549;42.286;22.688;2022-12-26T12:43:18;96538.19;;;10.21
32039;BMP280;18549;42.286;22.688;2022-12-26T12:45:53;96536.44;;;10.23
32039;BMP280;18549;42.286;22.688;2022-12-26T12:48:38;96547.09;;;10.25
32039;BMP280;18549;42.286;22.688;2022-12-26T12:51:19;96541.97;;;10.28
32039;BMP280;18549;42.286;22.688;2022-12-26T12:53:58;96546.78;;;10.31
32039;BMP280;18549;42.286;22.688;2022-12-26T12:56:34;96548.41;;;10.32
32039;BMP280;18549;42.286;22.688;2022-12-26T12:59:13;96535.84;;;10.35
32039;BMP280;18549;42.286;22.688;2022-12-26T13:01:46;96525.06;;;10.36
32039;BMP280;18549;42.286;22.688;2022-12-26T13:04:19;96534.13;;;10.37
32039;BMP280;18549;42.286;22.688;2022-12-26T13:06:50;96528.13;;;10.41
32039;BMP280;18549;42.286;22.688;2022-12-26T13:09:21;96533.09;;;10.41
32039;BMP280;18549;42.286;22.688;2022-12-26T13:11:51;96526.37;;;10.43
32039;BMP280;18549;42.286;22.688;2022-12-26T13:14:22;96537.91;;;10.44
32039;BMP280;18549;42.286;22.688;2022-12-26T13:16:54;96526.22;;;10.46
32039;BMP280;18549;42.286;22.688;2022-12-26T13:19:25;96529.44;;;10.48
32039;BMP280;18549;42.286;22.688;2022-12-26T13:21:59;96527.66;;;10.50
32039;BMP280;18549;42.286;22.688;2022-12-26T13:24:30;96522.72;;;10.50
32039;BMP280;18549;42.286;22.688;2022-12-26T13:27:00;96530.75;;;10.54
32039;BMP280;18549;42.286;22.688;2022-12-26T13:29:37;96525.63;;;10.57
32039;BMP280;18549;42.286;22.688;2022-12-26T13:32:15;96525.47;;;10.60
32039;BMP280;18549;42.286;22.688;2022-12-26T13:34:42;96522.12;;;10.61
32039;BMP280;18549;42.286;22.688;2022-12-26T13:40:15;96530.38;;;10.62
32039;BMP280;18549;42.286;22.688;2022-12-26T13:42:44;96529.47;;;10.63
32039;BMP280;18549;42.286;22.688;2022-12-26T13:45:54;96531.91;;;10.64
32039;BMP280;18549;42.286;22.688;2022-12-26T13:51:50;96516.28;;;10.62
32039;BMP280;18549;42.286;22.688;2022-12-26T13:54:17;96511.25;;;10.64
32039;BMP280;18549;42.286;22.688;2022-12-26T13:57:00;96513.66;;;10.65
32039;BMP280;18549;42.286;22.688;2022-12-26T13:59:35;96508.69;;;10.65
32039;BMP280;18549;42.286;22.688;2022-12-26T14:02:20;96518.53;;;10.67
32039;BMP280;18549;42.286;22.688;2022-12-26T14:04:57;96512.84;;;10.65
32039;BMP280;18549;42.286;22.688;2022-12-26T14:07:32;96519.50;;;10.64
32039;BMP280;18549;42.286;22.688;2022-12-26T14:10:05;96514.47;;;10.66
32039;BMP280;18549;42.286;22.688;2022-12-26T14:12:49;96520.34;;;10.63
32039;BMP280;18549;42.286;22.688;2022-12-26T14:15:26;96517.97;;;10.62
32039;BMP280;18549;42.286;22.688;2022-12-26T14:18:04;96518.94;;;10.59
32039;BMP280;18549;42.286;22.688;2022-12-26T14:20:40;96527.22;;;10.58
32039;BMP280;18549;42.286;22.688;2022-12-26T14:23:25;96528.13;;;10.57
32039;BMP280;18549;42.286;22.688;2022-12-26T14:26:01;96529.06;;;10.55
32039;BMP280;18549;42.286;22.688;2022-12-26T14:28:41;96528.34;;;10.53
32039;BMP280;18549;42.286;22.688;2022-12-26T14:31:23;96521.84;;;10.51
32039;BMP280;18549;42.286;22.688;2022-12-26T14:33:56;96521.12;;;10.49
32039;BMP280;18549;42.286;22.688;2022-12-26T14:36:34;96525.34;;;10.47
32039;BMP280;18549;42.286;22.688;2022-12-26T14:39:14;96528.72;;;10.46
32039;BMP280;18549;42.286;22.688;2022-12-26T14:45:42;96518.28;;;10.39
32039;BMP280;18549;42.286;22.688;2022-12-26T14:48:38;96513.56;;;10.35
32039;BMP280;18549;42.286;22.688;2022-12-26T14:51:27;96521.59;;;10.23
32039;BMP280;18549;42.286;22.688;2022-12-26T14:54:15;96519.81;;;10.08
32039;BMP280;18549;42.286;22.688;2022-12-26T14:56:47;96525.19;;;9.99
32039;BMP280;18549;42.286;22.688;2022-12-26T14:59:27;96529.94;;;10.04
32039;BMP280;18549;42.286;22.688;2022-12-26T15:02:10;96523.19;;;10.07